Time;durP1;ratioP1;P1;durP2;ratioP2;P2;SDS_P1;SDS_P2;PMS_P1;PMS_P2;Temp;Humidity;BMP_temperature;BMP_pressure;BME280_temperature;BME280_humidity;BME280_pressure;Samples;Min_cycle;Max_cycle;Signal;HPM_P1;HPM_P2
2022/10/21 00:02:01;;;;;;;16.63;10.18;;;;;;;;;;5069611;28;20044;-87
2022/10/21 00:04:27;;;;;;;18.00;9.23;;;;;;;;;;5052139;28;20033;-87
2022/10/21 00:06:52;;;;;;;19.27;9.98;;;;;;;;;;5069727;28;20048;-87
2022/10/21 00:09:18;;;;;;;18.73;9.20;;;;;;;;;;5069888;28;20021;-88
2022/10/21 00:11:43;;;;;;;11.55;7.97;;;;;;;;;;5069665;28;20062;-87
2022/10/21 00:14:09;;;;;;;15.77;8.68;;;;;;;;;;5051686;28;20092;-87
2022/10/21 00:16:34;;;;;;;17.80;9.23;;;;;;;;;;5070136;28;20036;-86
2022/10/21 00:19:00;;;;;;;13.15;8.10;;;;;;;;;;5069243;28;20037;-86
2022/10/21 00:21:25;;;;;;;14.10;7.50;;;;;;;;;;5070187;28;20024;-86
2022/10/21 00:23:51;;;;;;;13.10;7.68;;;;;;;;;;5069333;28;20044;-87
2022/10/21 00:26:17;;;;;;;13.63;7.03;;;;;;;;;;5069400;28;20036;-87
2022/10/21 00:28:43;;;;;;;15.95;7.60;;;;;;;;;;5069505;28;20433;-88
2022/10/21 00:31:11;;;;;;;15.93;8.60;;;;;;;;;;5035217;28;20033;-87
2022/10/21 00:33:36;;;;;;;16.38;8.88;;;;;;;;;;5051453;28;20477;-85
2022/10/21 00:36:03;;;;;;;14.80;7.90;;;;;;;;;;5069772;28;20088;-87
2022/10/21 00:38:30;;;;;;;10.40;7.60;;;;;;;;;;5069139;28;20049;-87
2022/10/21 00:40:55;;;;;;;15.95;8.13;;;;;;;;;;5052042;28;20025;-87
2022/10/21 00:43:22;;;;;;;12.35;7.63;;;;;;;;;;5051973;28;20127;-88
2022/10/21 00:45:51;;;;;;;12.48;7.88;;;;;;;;;;5051008;28;20037;-86
2022/10/21 00:48:38;;;;;;;12.82;7.53;;;;;;;;;;5069145;28;20041;-87
2022/10/21 00:51:11;;;;;;;12.10;8.32;;;;;;;;;;5051792;28;20033;-87
2022/10/21 00:53:42;;;;;;;13.10;8.00;;;;;;;;;;5069279;28;20056;-87
2022/10/21 00:56:16;;;;;;;11.80;7.93;;;;;;;;;;5069037;28;20040;-87
2022/10/21 00:58:44;;;;;;;11.93;7.78;;;;;;;;;;5051783;28;20075;-87
2022/10/21 01:01:09;;;;;;;14.07;8.15;;;;;;;;;;5069730;28;20037;-87
2022/10/21 01:03:35;;;;;;;12.70;8.70;;;;;;;;;;5069576;28;20473;-87
2022/10/21 01:06:08;;;;;;;11.80;8.57;;;;;;;;;;5051278;28;20044;-86
2022/10/21 01:08:35;;;;;;;13.63;7.88;;;;;;;;;;5068761;28;20074;-87
2022/10/21 01:11:01;;;;;;;12.82;8.38;;;;;;;;;;5068731;28;20124;-86
2022/10/21 01:13:32;;;;;;;13.82;8.63;;;;;;;;;;5068615;28;20045;-85
2022/10/21 01:16:10;;;;;;;15.13;8.68;;;;;;;;;;5050861;28;20043;-88
2022/10/21 01:18:48;;;;;;;16.23;8.80;;;;;;;;;;5069392;28;20041;-87
2022/10/21 01:21:14;;;;;;;10.50;7.97;;;;;;;;;;5050596;28;20032;-87
2022/10/21 01:24:10;;;;;;;17.15;8.20;;;;;;;;;;5068669;28;20025;-86
2022/10/21 01:27:05;;;;;;;11.00;7.38;;;;;;;;;;5068763;28;20037;-87
2022/10/21 01:30:01;;;;;;;11.70;7.00;;;;;;;;;;5029047;28;20049;-86
2022/10/21 01:32:26;;;;;;;12.35;6.78;;;;;;;;;;5068823;28;20094;-88
2022/10/21 01:34:55;;;;;;;9.27;6.43;;;;;;;;;;5068575;28;20033;-87
2022/10/21 01:37:28;;;;;;;9.10;5.82;;;;;;;;;;5069328;28;20048;-87
2022/10/21 01:40:04;;;;;;;8.35;5.10;;;;;;;;;;5068835;28;20049;-88
2022/10/21 01:42:41;;;;;;;10.52;3.75;;;;;;;;;;5069235;28;20092;-87
2022/10/21 01:45:16;;;;;;;9.82;3.70;;;;;;;;;;5068301;28;20037;-87
2022/10/21 01:47:53;;;;;;;8.35;4.47;;;;;;;;;;5068157;28;20037;-87
2022/10/21 01:50:24;;;;;;;11.32;5.72;;;;;;;;;;5034160;28;20125;-87
2022/10/21 01:52:55;;;;;;;12.65;5.40;;;;;;;;;;5068896;28;20037;-87
2022/10/21 01:55:22;;;;;;;9.10;4.55;;;;;;;;;;5050535;28;20048;-87
2022/10/21 01:57:55;;;;;;;10.02;4.75;;;;;;;;;;5070213;28;20033;-87
2022/10/21 02:00:21;;;;;;;8.07;5.57;;;;;;;;;;5072420;28;20044;-87
2022/10/21 02:02:48;;;;;;;14.20;5.68;;;;;;;;;;5072210;28;20032;-86
2022/10/21 02:05:24;;;;;;;10.18;5.45;;;;;;;;;;5054234;28;20033;-87
2022/10/21 02:07:49;;;;;;;7.25;5.28;;;;;;;;;;5037540;28;20055;-86
2022/10/21 02:10:17;;;;;;;8.98;4.80;;;;;;;;;;5071939;28;20300;-86
2022/10/21 02:12:46;;;;;;;10.15;4.70;;;;;;;;;;5080669;28;20029;-87
2022/10/21 02:15:14;;;;;;;5.72;3.97;;;;;;;;;;5074226;28;20040;-87
2022/10/21 02:17:43;;;;;;;11.13;5.50;;;;;;;;;;5091743;28;20114;-86
2022/10/21 02:20:12;;;;;;;8.77;5.75;;;;;;;;;;5074570;28;20033;-87
2022/10/21 02:22:40;;;;;;;9.75;5.78;;;;;;;;;;5091894;28;20084;-87
2022/10/21 02:25:16;;;;;;;10.13;5.72;;;;;;;;;;5092354;28;20100;-87
2022/10/21 02:27:41;;;;;;;9.38;5.03;;;;;;;;;;5091654;28;20483;-87
2022/10/21 02:30:08;;;;;;;7.95;5.25;;;;;;;;;;5092098;28;20036;-87
2022/10/21 02:33:05;;;;;;;8.60;5.50;;;;;;;;;;5073746;28;20043;-85
2022/10/21 02:35:37;;;;;;;9.73;5.35;;;;;;;;;;5091933;28;20051;-86
2022/10/21 02:38:16;;;;;;;9.25;5.00;;;;;;;;;;5092155;28;20070;-87
2022/10/21 02:40:51;;;;;;;8.80;4.55;;;;;;;;;;5092521;28;20420;-87
2022/10/21 02:43:37;;;;;;;7.10;4.78;;;;;;;;;;5074018;28;20032;-86
2022/10/21 02:46:08;;;;;;;9.57;5.25;;;;;;;;;;5091732;28;20012;-87
2022/10/21 02:48:36;;;;;;;6.63;4.18;;;;;;;;;;5092021;28;20028;-87
2022/10/21 02:51:04;;;;;;;10.35;5.07;;;;;;;;;;5073377;28;20029;-88
2022/10/21 02:53:30;;;;;;;10.57;4.57;;;;;;;;;;5073644;28;20040;-87
2022/10/21 02:55:55;;;;;;;9.05;4.15;;;;;;;;;;5073446;28;20032;-87
2022/10/21 02:58:21;;;;;;;9.93;5.25;;;;;;;;;;5057069;28;20028;-87
2022/10/21 03:00:46;;;;;;;10.18;5.30;;;;;;;;;;5091587;28;20152;-86
2022/10/21 03:03:12;;;;;;;8.43;5.40;;;;;;;;;;5091388;28;20052;-88
2022/10/21 03:05:37;;;;;;;15.07;4.88;;;;;;;;;;5073935;28;20024;-87
2022/10/21 03:08:03;;;;;;;8.68;4.97;;;;;;;;;;5091100;28;20033;-87
2022/10/21 03:10:28;;;;;;;13.75;5.28;;;;;;;;;;5090300;28;20397;-88
2022/10/21 03:12:54;;;;;;;8.25;4.80;;;;;;;;;;5091054;28;20456;-87
2022/10/21 03:15:19;;;;;;;8.35;4.55;;;;;;;;;;5073332;28;20216;-86
2022/10/21 03:17:45;;;;;;;5.90;4.10;;;;;;;;;;5072815;28;20031;-87
2022/10/21 03:20:11;;;;;;;9.27;3.65;;;;;;;;;;5091620;28;20063;-87
2022/10/21 03:22:36;;;;;;;7.38;3.25;;;;;;;;;;5090428;28;20036;-86
2022/10/21 03:25:03;;;;;;;8.15;2.90;;;;;;;;;;5073207;28;20032;-87
2022/10/21 03:27:28;;;;;;;8.65;2.97;;;;;;;;;;5072797;28;20032;-85
2022/10/21 03:29:53;;;;;;;7.85;3.08;;;;;;;;;;5090963;28;20035;-86
2022/10/21 03:32:19;;;;;;;7.85;3.97;;;;;;;;;;5089003;28;20105;-87
2022/10/21 03:34:44;;;;;;;9.30;3.80;;;;;;;;;;5071264;28;20033;-87
2022/10/21 03:37:10;;;;;;;7.97;4.00;;;;;;;;;;5070450;28;20028;-87
2022/10/21 03:39:35;;;;;;;10.02;4.70;;;;;;;;;;5070772;28;20024;-87
2022/10/21 03:42:01;;;;;;;10.43;4.80;;;;;;;;;;5070721;28;20025;-88
2022/10/21 03:44:26;;;;;;;9.20;4.78;;;;;;;;;;5070279;28;20648;-86
2022/10/21 03:46:51;;;;;;;12.48;4.60;;;;;;;;;;5070653;28;20033;-87
2022/10/21 03:49:20;;;;;;;12.15;5.18;;;;;;;;;;5053385;28;20055;-86
2022/10/21 03:51:45;;;;;;;7.35;4.50;;;;;;;;;;5053126;28;20100;-87
2022/10/21 03:54:11;;;;;;;6.43;3.65;;;;;;;;;;5069912;28;20044;-88
2022/10/21 03:56:36;;;;;;;8.48;4.22;;;;;;;;;;5070185;28;20067;-87
2022/10/21 03:59:02;;;;;;;7.72;4.10;;;;;;;;;;5070495;28;20039;-87
2022/10/21 04:01:27;;;;;;;7.78;3.38;;;;;;;;;;5070095;28;20029;-87
2022/10/21 04:03:53;;;;;;;10.65;3.60;;;;;;;;;;5070488;28;20065;-86
2022/10/21 04:06:19;;;;;;;11.35;3.67;;;;;;;;;;5080186;22;20102;-84
2022/10/21 04:08:44;;;;;;;10.88;4.07;;;;;;;;;;5084786;28;20033;-83
2022/10/21 04:11:10;;;;;;;5.15;3.42;;;;;;;;;;5085969;28;20100;-82
2022/10/21 04:13:35;;;;;;;9.00;3.20;;;;;;;;;;5084250;28;20039;-82
2022/10/21 04:16:03;;;;;;;11.90;3.35;;;;;;;;;;5065365;28;20036;-84
2022/10/21 04:18:28;;;;;;;6.75;3.20;;;;;;;;;;5085532;28;20070;-83
2022/10/21 04:20:54;;;;;;;7.40;3.72;;;;;;;;;;5084347;28;20040;-84
2022/10/21 04:23:19;;;;;;;8.35;4.15;;;;;;;;;;5084458;28;20032;-83
2022/10/21 04:25:46;;;;;;;6.63;4.10;;;;;;;;;;5067134;28;20028;-83
2022/10/21 04:28:12;;;;;;;10.15;4.57;;;;;;;;;;5065793;28;20098;-84
2022/10/21 04:30:37;;;;;;;7.80;5.18;;;;;;;;;;5085597;28;20032;-84
2022/10/21 04:33:03;;;;;;;13.25;5.35;;;;;;;;;;5084149;28;20043;-84
2022/10/21 04:35:28;;;;;;;12.05;5.78;;;;;;;;;;5084760;28;20028;-84
2022/10/21 04:37:54;;;;;;;10.10;4.97;;;;;;;;;;5067789;28;20032;-84
2022/10/21 04:40:19;;;;;;;11.27;5.60;;;;;;;;;;5086212;28;20028;-83
2022/10/21 04:42:48;;;;;;;11.00;5.40;;;;;;;;;;5088506;28;20032;-84
2022/10/21 04:45:15;;;;;;;13.23;5.60;;;;;;;;;;5082116;28;20029;-83
2022/10/21 04:47:40;;;;;;;10.15;5.43;;;;;;;;;;5080189;28;20044;-84
2022/10/21 04:50:06;;;;;;;11.32;5.63;;;;;;;;;;5081951;28;20045;-83
2022/10/21 04:52:32;;;;;;;8.65;5.20;;;;;;;;;;5080435;28;20085;-83
2022/10/21 04:54:57;;;;;;;8.73;5.00;;;;;;;;;;5080425;28;20150;-83
2022/10/21 04:57:23;;;;;;;11.43;4.80;;;;;;;;;;5082024;28;20037;-83
2022/10/21 04:59:48;;;;;;;15.23;5.22;;;;;;;;;;5082229;28;20060;-83
2022/10/21 05:02:14;;;;;;;7.95;5.13;;;;;;;;;;5080782;28;20539;-83
2022/10/21 05:04:39;;;;;;;11.55;6.20;;;;;;;;;;5080394;28;20047;-83
2022/10/21 05:07:05;;;;;;;9.13;5.72;;;;;;;;;;5082605;28;20043;-84
2022/10/21 05:09:30;;;;;;;12.23;4.70;;;;;;;;;;5080891;28;20065;-83
2022/10/21 05:11:56;;;;;;;9.00;5.30;;;;;;;;;;5080037;28;20033;-84
2022/10/21 05:14:21;;;;;;;12.38;5.07;;;;;;;;;;5083031;28;20084;-84
2022/10/21 05:16:47;;;;;;;12.95;5.15;;;;;;;;;;5064397;28;20040;-84
2022/10/21 05:19:12;;;;;;;11.02;5.15;;;;;;;;;;5081911;28;20044;-82
2022/10/21 05:21:38;;;;;;;8.65;4.85;;;;;;;;;;5084172;28;20077;-83
2022/10/21 05:24:04;;;;;;;10.80;5.07;;;;;;;;;;5081927;28;20040;-83
2022/10/21 05:26:29;;;;;;;10.05;5.38;;;;;;;;;;5083913;28;20489;-83
2022/10/21 05:28:56;;;;;;;11.25;5.20;;;;;;;;;;5082630;28;20032;-84
2022/10/21 05:31:22;;;;;;;11.95;6.20;;;;;;;;;;5084428;28;20095;-84
2022/10/21 05:33:47;;;;;;;10.38;5.93;;;;;;;;;;5086039;28;20043;-84
2022/10/21 05:36:13;;;;;;;11.85;6.55;;;;;;;;;;5070148;28;20036;-84
2022/10/21 05:38:38;;;;;;;11.25;5.93;;;;;;;;;;5089284;28;20096;-84
2022/10/21 05:41:04;;;;;;;12.23;4.80;;;;;;;;;;5089326;28;20036;-83
2022/10/21 05:43:30;;;;;;;12.60;4.88;;;;;;;;;;5088563;28;20136;-84
2022/10/21 05:45:56;;;;;;;8.23;4.35;;;;;;;;;;5087570;28;20091;-84
2022/10/21 05:48:21;;;;;;;9.35;4.20;;;;;;;;;;5088335;28;20044;-84
2022/10/21 05:50:51;;;;;;;13.88;4.50;;;;;;;;;;5089597;28;20044;-83
2022/10/21 05:53:16;;;;;;;9.68;4.10;;;;;;;;;;5088601;28;20040;-83
2022/10/21 05:55:42;;;;;;;9.20;4.15;;;;;;;;;;5083032;28;20024;-84
2022/10/21 05:58:07;;;;;;;6.60;3.92;;;;;;;;;;5083586;28;20063;-83
2022/10/21 06:00:33;;;;;;;15.25;4.20;;;;;;;;;;5081884;28;20079;-83
2022/10/21 06:02:59;;;;;;;6.57;3.65;;;;;;;;;;5083684;28;20032;-83
2022/10/21 06:05:25;;;;;;;8.35;3.72;;;;;;;;;;5085179;28;20032;-84
2022/10/21 06:07:50;;;;;;;8.48;3.58;;;;;;;;;;5082700;28;20036;-84
2022/10/21 06:10:16;;;;;;;9.18;3.40;;;;;;;;;;5063334;28;20033;-84
2022/10/21 06:12:42;;;;;;;7.00;3.20;;;;;;;;;;5065644;28;20037;-84
2022/10/21 06:15:08;;;;;;;7.60;3.10;;;;;;;;;;5063480;28;20039;-83
2022/10/21 06:17:34;;;;;;;9.23;4.20;;;;;;;;;;5064968;28;20037;-84
2022/10/21 06:20:00;;;;;;;8.40;3.28;;;;;;;;;;5064326;28;20041;-83
2022/10/21 06:22:29;;;;;;;8.70;3.60;;;;;;;;;;5064606;28;20029;-84
2022/10/21 06:24:54;;;;;;;8.13;4.30;;;;;;;;;;5065254;28;20098;-83
2022/10/21 06:27:20;;;;;;;10.93;5.13;;;;;;;;;;5080870;28;20041;-84
2022/10/21 06:29:45;;;;;;;13.15;5.50;;;;;;;;;;5067259;28;20128;-83
2022/10/21 06:32:11;;;;;;;10.43;5.05;;;;;;;;;;5066751;28;20037;-83
2022/10/21 06:34:37;;;;;;;9.48;4.95;;;;;;;;;;5067404;28;20036;-84
2022/10/21 06:37:03;;;;;;;9.48;4.95;;;;;;;;;;5065640;28;20401;-83
2022/10/21 06:39:28;;;;;;;13.98;6.50;;;;;;;;;;5065813;28;20047;-84
2022/10/21 06:41:54;;;;;;;11.10;5.68;;;;;;;;;;5067470;28;20028;-83
2022/10/21 06:44:38;;;;;;;11.77;5.93;;;;;;;;;;5062695;28;20029;-82
2022/10/21 06:47:03;;;;;;;10.70;5.63;;;;;;;;;;5064213;28;20063;-83
2022/10/21 06:49:29;;;;;;;9.23;5.40;;;;;;;;;;5064034;28;20029;-82
2022/10/21 06:51:54;;;;;;;13.18;5.10;;;;;;;;;;5063613;28;20059;-86
2022/10/21 06:54:20;;;;;;;13.15;5.03;;;;;;;;;;5060900;28;20033;-86
2022/10/21 06:56:45;;;;;;;13.25;4.75;;;;;;;;;;5060330;28;20082;-85
2022/10/21 06:59:11;;;;;;;12.73;5.28;;;;;;;;;;5061200;28;20039;-84
2022/10/21 07:01:36;;;;;;;12.45;4.80;;;;;;;;;;5061919;28;20024;-83
2022/10/21 07:04:04;;;;;;;10.73;4.35;;;;;;;;;;5060296;28;20037;-84
2022/10/21 07:06:30;;;;;;;12.57;5.10;;;;;;;;;;5041956;28;20056;-84
2022/10/21 07:08:56;;;;;;;11.23;5.00;;;;;;;;;;5060061;28;20489;-84
2022/10/21 07:11:22;;;;;;;13.25;4.72;;;;;;;;;;5062064;28;20029;-83
2022/10/21 07:13:47;;;;;;;10.45;5.15;;;;;;;;;;5060202;28;20033;-83
2022/10/21 07:16:12;;;;;;;9.88;5.07;;;;;;;;;;5061122;28;20544;-83
2022/10/21 07:18:38;;;;;;;11.15;5.07;;;;;;;;;;5062177;28;20486;-84
2022/10/21 07:21:06;;;;;;;12.15;4.70;;;;;;;;;;5046554;28;20061;-84
2022/10/21 07:23:32;;;;;;;8.98;5.10;;;;;;;;;;5063141;28;20032;-85
2022/10/21 07:25:57;;;;;;;9.85;5.60;;;;;;;;;;5062421;28;20043;-84
2022/10/21 07:28:23;;;;;;;9.40;4.95;;;;;;;;;;5060955;28;20036;-82
2022/10/21 07:30:48;;;;;;;15.95;5.10;;;;;;;;;;5061673;28;20465;-83
2022/10/21 07:33:14;;;;;;;17.48;5.20;;;;;;;;;;5061919;28;20043;-84
2022/10/21 07:35:40;;;;;;;19.30;10.10;;;;;;;;;;5061254;28;20033;-83
2022/10/21 07:38:06;;;;;;;16.17;8.70;;;;;;;;;;5062085;28;20037;-83
2022/10/21 07:40:37;;;;;;;20.95;9.25;;;;;;;;;;5061423;28;20040;-85
2022/10/21 07:43:02;;;;;;;12.93;7.07;;;;;;;;;;5061942;28;20021;-84
2022/10/21 07:45:27;;;;;;;15.40;5.97;;;;;;;;;;5061561;28;20049;-83
2022/10/21 07:47:53;;;;;;;9.57;5.35;;;;;;;;;;5062314;28;20035;-84
2022/10/21 07:50:18;;;;;;;12.85;5.63;;;;;;;;;;5064184;28;20409;-85
2022/10/21 07:52:44;;;;;;;14.00;5.88;;;;;;;;;;5063734;28;20497;-84
2022/10/21 07:55:15;;;;;;;12.15;5.18;;;;;;;;;;5061675;28;20404;-84
2022/10/21 07:57:41;;;;;;;12.27;4.60;;;;;;;;;;5063095;28;20033;-85
2022/10/21 08:00:09;;;;;;;9.68;4.50;;;;;;;;;;5064648;28;20096;-84
2022/10/21 08:02:41;;;;;;;8.40;4.57;;;;;;;;;;5063037;28;20105;-84
2022/10/21 08:05:07;;;;;;;14.77;4.70;;;;;;;;;;5064151;28;20236;-83
2022/10/21 08:07:33;;;;;;;12.38;5.20;;;;;;;;;;5065583;28;20028;-84
2022/10/21 08:09:59;;;;;;;9.68;4.90;;;;;;;;;;5065596;28;20163;-83
2022/10/21 08:12:25;;;;;;;15.35;5.03;;;;;;;;;;5063769;28;20092;-83
2022/10/21 08:14:50;;;;;;;13.27;5.32;;;;;;;;;;5064916;28;20040;-83
2022/10/21 08:17:16;;;;;;;10.20;4.85;;;;;;;;;;5063243;28;20452;-83
2022/10/21 08:19:42;;;;;;;13.07;4.60;;;;;;;;;;5064744;28;20036;-83
2022/10/21 08:22:07;;;;;;;13.63;4.75;;;;;;;;;;5064845;28;20033;-83
2022/10/21 08:24:33;;;;;;;9.50;4.78;;;;;;;;;;5064493;28;20109;-83
2022/10/21 08:26:58;;;;;;;9.70;4.60;;;;;;;;;;5064776;28;20043;-84
2022/10/21 08:29:24;;;;;;;10.40;4.80;;;;;;;;;;5065918;28;20045;-82
2022/10/21 08:31:49;;;;;;;9.23;5.03;;;;;;;;;;5065997;28;20040;-84
2022/10/21 08:34:15;;;;;;;9.45;5.65;;;;;;;;;;5065698;28;20082;-83
2022/10/21 08:36:40;;;;;;;8.30;4.65;;;;;;;;;;5067906;28;20033;-82
2022/10/21 08:39:06;;;;;;;8.63;4.22;;;;;;;;;;5067432;28;20029;-83
2022/10/21 08:41:45;;;;;;;9.77;4.32;;;;;;;;;;5061566;28;20115;-83
2022/10/21 08:44:26;;;;;;;12.35;6.75;;;;;;;;;;5059984;28;20044;-83
2022/10/21 08:47:05;;;;;;;11.70;6.45;;;;;;;;;;5061190;28;20028;-82
2022/10/21 08:49:43;;;;;;;12.65;5.07;;;;;;;;;;5060334;28;20092;-83
2022/10/21 08:52:16;;;;;;;13.10;5.22;;;;;;;;;;5059966;28;20033;-83
2022/10/21 08:54:52;;;;;;;10.43;5.30;;;;;;;;;;5061156;28;20041;-83
2022/10/21 08:57:18;;;;;;;9.05;4.82;;;;;;;;;;5062048;28;20490;-83
2022/10/21 08:59:45;;;;;;;9.98;5.25;;;;;;;;;;5062329;28;20029;-82
2022/10/21 09:02:10;;;;;;;11.70;5.20;;;;;;;;;;5062797;28;20037;-83
2022/10/21 09:04:42;;;;;;;7.57;4.47;;;;;;;;;;5059890;28;20068;-83
2022/10/21 09:07:22;;;;;;;8.45;4.20;;;;;;;;;;5064073;28;20372;-83
2022/10/21 09:10:01;;;;;;;10.23;5.13;;;;;;;;;;5044773;28;20048;-84
2022/10/21 09:12:44;;;;;;;8.38;4.18;;;;;;;;;;5062351;28;20052;-82
2022/10/21 09:15:24;;;;;;;7.20;4.20;;;;;;;;;;5061265;28;20128;-83
2022/10/21 09:18:11;;;;;;;10.23;4.10;;;;;;;;;;5062082;28;20052;-83
2022/10/21 09:21:06;;;;;;;6.75;4.20;;;;;;;;;;5061446;28;20037;-83
2022/10/21 09:23:53;;;;;;;10.25;4.65;;;;;;;;;;5060283;28;20040;-83
2022/10/21 09:26:47;;;;;;;8.43;3.92;;;;;;;;;;5061213;28;20039;-83
2022/10/21 09:29:30;;;;;;;9.85;3.90;;;;;;;;;;5060684;28;20045;-83
2022/10/21 09:32:08;;;;;;;9.13;3.92;;;;;;;;;;5061229;28;20069;-84
2022/10/21 09:34:42;;;;;;;8.70;4.40;;;;;;;;;;5062544;28;20056;-83
2022/10/21 09:37:17;;;;;;;9.35;4.30;;;;;;;;;;5060557;28;20094;-83
2022/10/21 09:39:48;;;;;;;8.15;4.30;;;;;;;;;;5063038;28;20041;-83
2022/10/21 09:42:14;;;;;;;8.88;4.00;;;;;;;;;;5061420;28;20033;-83
2022/10/21 09:44:42;;;;;;;10.30;4.07;;;;;;;;;;5063412;28;20115;-83
2022/10/21 09:47:19;;;;;;;13.25;4.20;;;;;;;;;;5063297;28;20086;-84
2022/10/21 09:49:48;;;;;;;11.90;3.88;;;;;;;;;;5062263;28;20501;-83
2022/10/21 09:52:16;;;;;;;9.18;4.22;;;;;;;;;;5064047;28;20040;-83
2022/10/21 09:54:42;;;;;;;10.20;4.25;;;;;;;;;;5063403;28;20051;-83
2022/10/21 09:57:28;;;;;;;7.63;4.10;;;;;;;;;;5065170;28;20045;-83
2022/10/21 10:00:03;;;;;;;7.93;3.80;;;;;;;;;;5062859;28;20041;-84
2022/10/21 10:02:44;;;;;;;7.82;3.88;;;;;;;;;;5063636;28;20029;-84
2022/10/21 10:05:34;;;;;;;11.45;3.58;;;;;;;;;;5061140;28;20125;-84
2022/10/21 10:08:00;;;;;;;7.25;3.20;;;;;;;;;;5112906;22;20048;-89
2022/10/21 10:10:33;;;;;;;10.95;3.50;;;;;;;;;;5080184;28;20101;-88
2022/10/21 10:12:59;;;;;;;19.70;7.57;;;;;;;;;;5098287;28;20036;-89
2022/10/21 10:15:34;;;;;;;33.90;12.43;;;;;;;;;;5079627;28;20077;-88
2022/10/21 10:18:00;;;;;;;45.55;14.57;;;;;;;;;;5080444;28;20067;-89
2022/10/21 10:20:26;;;;;;;16.02;5.80;;;;;;;;;;5102546;28;20036;-88
2022/10/21 10:22:57;;;;;;;21.00;10.10;;;;;;;;;;5108820;28;20035;-88
2022/10/21 10:25:27;;;;;;;27.00;12.65;;;;;;;;;;5088947;28;20046;-86
2022/10/21 10:27:52;;;;;;;13.13;4.88;;;;;;;;;;5107913;28;20036;-87
2022/10/21 10:30:20;;;;;;;10.70;5.00;;;;;;;;;;5110180;28;20028;-87
2022/10/21 10:32:46;;;;;;;11.98;5.90;;;;;;;;;;5090205;28;20028;-87
2022/10/21 10:35:29;;;;;;;15.50;6.82;;;;;;;;;;5106631;28;20050;-87
2022/10/21 10:37:57;;;;;;;19.58;5.10;;;;;;;;;;5105391;28;20036;-87
2022/10/21 10:40:30;;;;;;;13.73;5.05;;;;;;;;;;5107996;28;20032;-87
2022/10/21 10:43:02;;;;;;;;;;;;;;;;;;5106190;28;20095;-88
2022/10/21 10:45:28;;;;;;;16.08;7.80;;;;;;;;;;5109128;28;19912;-88
2022/10/21 10:47:57;;;;;;;11.93;4.70;;;;;;;;;;5110836;28;20393;-87
2022/10/21 10:50:45;;;;;;;9.85;4.25;;;;;;;;;;5109543;28;20032;-87
2022/10/21 10:53:36;;;;;;;10.40;3.85;;;;;;;;;;5087443;28;20036;-88
2022/10/21 10:56:14;;;;;;;11.90;3.50;;;;;;;;;;5102944;28;20032;-89
2022/10/21 10:58:55;;;;;;;10.40;3.50;;;;;;;;;;5083614;28;20081;-88
2022/10/21 11:01:26;;;;;;;9.80;3.35;;;;;;;;;;5104297;28;20115;-88
2022/10/21 11:04:01;;;;;;;14.80;3.60;;;;;;;;;;5107245;28;20039;-88
2022/10/21 11:06:35;;;;;;;8.57;3.55;;;;;;;;;;5107860;28;20036;-88
2022/10/21 11:09:19;;;;;;;8.90;3.65;;;;;;;;;;5107733;28;20047;-87
2022/10/21 11:11:47;;;;;;;7.80;3.53;;;;;;;;;;5107885;28;20409;-87
2022/10/21 11:14:16;;;;;;;7.65;3.42;;;;;;;;;;5107099;28;20095;-88
2022/10/21 11:20:45;;;;;;;6.70;3.78;;;;;;;;;;5107664;28;20077;-88
2022/10/21 11:27:02;;;;;;;12.32;3.95;;;;;;;;;;5108961;28;20047;-88
2022/10/21 11:29:33;;;;;;;11.50;4.00;;;;;;;;;;5106805;28;20052;-88
2022/10/21 11:32:17;;;;;;;12.40;4.47;;;;;;;;;;5089477;28;20032;-88
2022/10/21 11:34:43;;;;;;;;;;;;;;;;;;5090348;28;20032;-88
2022/10/21 11:37:43;;;;;;;11.88;3.83;;;;;;;;;;5089750;28;19912;-88
2022/10/21 11:40:17;;;;;;;8.95;4.47;;;;;;;;;;5064173;28;20048;-88
2022/10/21 11:42:47;;;;;;;18.25;4.93;;;;;;;;;;5089789;28;20061;-88
2022/10/21 11:45:57;;;;;;;10.70;4.20;;;;;;;;;;5108054;28;20103;-89
2022/10/21 11:48:41;;;;;;;12.10;3.88;;;;;;;;;;5046195;28;20036;-87
2022/10/21 11:51:21;;;;;;;9.80;3.95;;;;;;;;;;5108900;28;20096;-88
2022/10/21 11:54:13;;;;;;;15.73;3.78;;;;;;;;;;5107425;28;20042;-88
2022/10/21 11:57:08;;;;;;;11.93;3.65;;;;;;;;;;5057745;28;20052;-88
2022/10/21 11:59:49;;;;;;;10.35;4.18;;;;;;;;;;5102529;28;20052;-90
2022/10/21 12:02:24;;;;;;;10.18;3.83;;;;;;;;;;5097058;28;20032;-89
2022/10/21 12:05:24;;;;;;;8.48;3.45;;;;;;;;;;5080904;28;20039;-90
2022/10/21 12:08:22;;;;;;;11.80;4.18;;;;;;;;;;5096556;28;20040;-89
2022/10/21 12:10:57;;;;;;;13.25;3.70;;;;;;;;;;5081863;28;20048;-89
2022/10/21 12:13:30;;;;;;;11.20;3.47;;;;;;;;;;5097266;28;20071;-89
2022/10/21 12:16:04;;;;;;;10.80;3.40;;;;;;;;;;5079117;28;20059;-89
2022/10/21 12:18:30;;;;;;;11.60;3.28;;;;;;;;;;5078780;28;20036;-89
2022/10/21 12:20:59;;;;;;;11.43;3.25;;;;;;;;;;5077902;28;20032;-90
2022/10/21 12:23:27;;;;;;;7.65;2.75;;;;;;;;;;5078355;28;20024;-89
2022/10/21 12:26:06;;;;;;;7.03;3.20;;;;;;;;;;5079946;28;20484;-90
2022/10/21 12:28:56;;;;;;;6.45;3.20;;;;;;;;;;5096060;28;20027;-89
2022/10/21 12:31:36;;;;;;;8.05;2.97;;;;;;;;;;5098879;28;20060;-89
2022/10/21 12:34:03;;;;;;;10.15;3.40;;;;;;;;;;5103767;28;20062;-90
2022/10/21 12:36:36;;;;;;;9.02;2.83;;;;;;;;;;5079060;28;20077;-89
2022/10/21 12:39:02;;;;;;;7.68;2.97;;;;;;;;;;5097453;28;20031;-89
2022/10/21 12:41:35;;;;;;;8.02;2.60;;;;;;;;;;5097358;28;20032;-90
2022/10/21 12:44:00;;;;;;;10.13;2.80;;;;;;;;;;5079712;28;20039;-90
2022/10/21 12:46:37;;;;;;;7.63;2.40;;;;;;;;;;5097590;28;20036;-90
2022/10/21 12:49:20;;;;;;;7.20;2.35;;;;;;;;;;5078850;28;20493;-90
2022/10/21 12:52:00;;;;;;;9.18;2.85;;;;;;;;;;5099242;28;20036;-89
2022/10/21 12:54:34;;;;;;;9.23;2.50;;;;;;;;;;5079226;28;20044;-90
2022/10/21 12:57:05;;;;;;;9.20;2.47;;;;;;;;;;5080351;28;20054;-90
2022/10/21 12:59:32;;;;;;;6.35;2.10;;;;;;;;;;5080579;28;20081;-90
2022/10/21 13:02:03;;;;;;;5.97;2.13;;;;;;;;;;5079128;28;20043;-90
2022/10/21 13:04:32;;;;;;;12.38;2.17;;;;;;;;;;5061981;28;20023;-89
2022/10/21 13:07:00;;;;;;;5.30;1.85;;;;;;;;;;5098606;28;20592;-90
2022/10/21 13:09:34;;;;;;;7.07;2.20;;;;;;;;;;5083228;28;20032;-89
2022/10/21 13:12:17;;;;;;;6.60;2.10;;;;;;;;;;5082671;28;20497;-90
2022/10/21 13:14:47;;;;;;;4.95;1.80;;;;;;;;;;5082671;28;20119;-91
2022/10/21 13:17:13;;;;;;;4.78;2.00;;;;;;;;;;5097310;28;20386;-88
2022/10/21 13:19:54;;;;;;;6.90;2.15;;;;;;;;;;5080841;28;20446;-90
2022/10/21 13:22:35;;;;;;;6.25;2.10;;;;;;;;;;5078265;28;20047;-91
2022/10/21 13:25:22;;;;;;;6.20;1.67;;;;;;;;;;5094374;28;20449;-90
2022/10/21 13:28:07;;;;;;;4.90;1.70;;;;;;;;;;5076454;28;20028;-90
2022/10/21 13:31:09;;;;;;;6.60;1.90;;;;;;;;;;5077994;28;20054;-90
2022/10/21 13:33:55;;;;;;;8.43;1.70;;;;;;;;;;5069262;28;20036;-89
2022/10/21 13:36:34;;;;;;;5.50;1.52;;;;;;;;;;5103333;28;20059;-89
2022/10/21 13:39:05;;;;;;;4.38;1.60;;;;;;;;;;5102609;28;20503;-89
2022/10/21 13:41:31;;;;;;;5.90;1.58;;;;;;;;;;5084783;28;20040;-89
2022/10/21 13:44:03;;;;;;;11.90;3.00;;;;;;;;;;5101547;28;20063;-88
2022/10/21 13:46:35;;;;;;;4.78;2.22;;;;;;;;;;5084176;28;20039;-89
2022/10/21 13:49:01;;;;;;;7.13;2.03;;;;;;;;;;5099882;28;20097;-88
2022/10/21 13:51:34;;;;;;;6.22;2.00;;;;;;;;;;5098689;28;20027;-89
2022/10/21 13:54:11;;;;;;;;;;;;;;;;;;5100985;28;20044;-87
2022/10/21 13:56:37;;;;;;;8.90;2.50;;;;;;;;;;5101765;28;19912;-88
2022/10/21 13:59:22;;;;;;;5.18;2.30;;;;;;;;;;5084497;28;20089;-89
2022/10/21 14:01:53;;;;;;;6.20;2.30;;;;;;;;;;5083263;28;20039;-88
2022/10/21 14:04:24;;;;;;;3.63;1.90;;;;;;;;;;5100050;28;20064;-90
2022/10/21 14:06:56;;;;;;;8.13;1.75;;;;;;;;;;5099404;28;20047;-89
2022/10/21 14:09:30;;;;;;;7.15;1.90;;;;;;;;;;5081752;28;20040;-88
2022/10/21 14:12:00;;;;;;;6.45;1.92;;;;;;;;;;5082979;28;20105;-89
2022/10/21 14:14:27;;;;;;;8.63;1.92;;;;;;;;;;5085508;28;20377;-88
2022/10/21 14:17:03;;;;;;;6.53;1.77;;;;;;;;;;5102101;28;20039;-88
2022/10/21 14:19:31;;;;;;;4.32;1.70;;;;;;;;;;5099756;28;20044;-88
2022/10/21 14:22:08;;;;;;;7.53;1.80;;;;;;;;;;5082093;28;20035;-92
2022/10/21 14:24:46;;;;;;;7.82;1.90;;;;;;;;;;5080050;28;20067;-91
2022/10/21 14:27:23;;;;;;;6.47;1.80;;;;;;;;;;5097773;28;20032;-92
2022/10/21 14:29:49;;;;;;;4.68;1.50;;;;;;;;;;5096418;28;20082;-90
2022/10/21 14:32:18;;;;;;;5.22;1.40;;;;;;;;;;5095328;28;20489;-91
2022/10/21 14:34:56;;;;;;;2.47;1.30;;;;;;;;;;5077060;28;20036;-91
2022/10/21 14:37:22;;;;;;;5.90;1.45;;;;;;;;;;5095315;28;20050;-91
2022/10/21 14:39:47;;;;;;;4.57;1.50;;;;;;;;;;5095298;28;20032;-90
2022/10/21 14:42:22;;;;;;;3.28;1.80;;;;;;;;;;5096723;28;20028;-90
2022/10/21 14:44:51;;;;;;;6.07;1.73;;;;;;;;;;5102858;28;20031;-87
2022/10/21 14:47:26;;;;;;;3.88;1.50;;;;;;;;;;5088430;28;20061;-88
2022/10/21 14:49:54;;;;;;;4.80;1.52;;;;;;;;;;5087550;28;20046;-89
2022/10/21 14:52:23;;;;;;;4.78;1.50;;;;;;;;;;5084737;28;20043;-89
2022/10/21 14:54:56;;;;;;;3.30;1.50;;;;;;;;;;5085186;28;20036;-87
2022/10/21 14:57:27;;;;;;;2.88;1.50;;;;;;;;;;5102741;28;20046;-87
2022/10/21 14:59:53;;;;;;;4.80;1.98;;;;;;;;;;5102352;28;20396;-88
2022/10/21 15:02:23;;;;;;;6.32;3.55;;;;;;;;;;5101793;28;20027;-87
2022/10/21 15:04:52;;;;;;;7.30;2.72;;;;;;;;;;5084972;28;20032;-88
2022/10/21 15:07:24;;;;;;;6.10;2.80;;;;;;;;;;5084983;28;20036;-88